Time;durP1;ratioP1;P1;durP2;ratioP2;P2;SDS_P1;SDS_P2;PMS_P1;PMS_P2;Temp;Humidity;BMP_temperature;BMP_pressure;BME280_temperature;BME280_humidity;BME280_pressure;Samples;Min_cycle;Max_cycle;Signal;HPM_P1;HPM_P2
2023/05/10 00:01:45;;;;;;;0.80;0.73;;;14.80;99.90;;;;;;4963403;28;20180;-67
2023/05/10 00:04:11;;;;;;;0.70;0.60;;;14.80;99.90;;;;;;4953199;28;20176;-66
2023/05/10 00:06:37;;;;;;;1.63;0.60;;;14.80;99.90;;;;;;4970525;28;20355;-66
2023/05/10 00:09:03;;;;;;;0.43;0.40;;;14.80;99.90;;;;;;4955671;28;20212;-68
2023/05/10 00:11:31;;;;;;;0.80;0.70;;;14.80;99.90;;;;;;4967812;28;20203;-70
2023/05/10 00:13:56;;;;;;;0.50;0.50;;;14.90;99.90;;;;;;4969169;28;20336;-68
2023/05/10 00:16:27;;;;;;;0.75;0.50;;;14.80;99.90;;;;;;4968189;28;20307;-68
2023/05/10 00:18:52;;;;;;;0.63;0.60;;;14.80;99.90;;;;;;4960036;28;20220;-65
2023/05/10 00:21:21;;;;;;;0.60;0.60;;;14.80;99.90;;;;;;4952038;28;20211;-66
2023/05/10 00:23:46;;;;;;;0.75;0.70;;;14.90;99.90;;;;;;4956459;29;20180;-68
2023/05/10 00:26:12;;;;;;;1.15;1.02;;;14.80;99.90;;;;;;4954222;29;20181;-68
2023/05/10 00:28:38;;;;;;;0.70;0.70;;;14.80;99.90;;;;;;4973464;28;20200;-69
2023/05/10 00:31:05;;;;;;;1.75;0.70;;;14.80;99.90;;;;;;4975229;28;20203;-69
2023/05/10 00:33:31;;;;;;;0.60;0.60;;;14.80;99.90;;;;;;4972272;28;20177;-68
2023/05/10 00:35:57;;;;;;;0.80;0.70;;;14.80;99.90;;;;;;4943604;29;20215;-69
2023/05/10 00:38:22;;;;;;;0.75;0.70;;;14.80;99.90;;;;;;4957426;28;20228;-67
2023/05/10 00:40:48;;;;;;;0.70;0.70;;;14.80;99.90;;;;;;4974276;28;20259;-67
2023/05/10 00:43:16;;;;;;;0.60;0.60;;;14.80;99.90;;;;;;4970849;28;20261;-68
2023/05/10 00:45:42;;;;;;;1.20;0.63;;;14.80;99.90;;;;;;4953749;29;20180;-68
2023/05/10 00:48:10;;;;;;;0.90;0.73;;;14.80;99.90;;;;;;4951193;28;20209;-68
2023/05/10 00:50:40;;;;;;;1.80;0.70;;;14.80;99.90;;;;;;4973478;28;20189;-66
2023/05/10 00:53:07;;;;;;;2.95;0.60;;;14.80;99.90;;;;;;4957458;28;20195;-68
2023/05/10 00:55:32;;;;;;;0.70;0.50;;;14.80;99.90;;;;;;4968094;28;20219;-68
2023/05/10 00:57:58;;;;;;;0.63;0.60;;;14.80;99.90;;;;;;4967607;28;20303;-70
2023/05/10 01:00:24;;;;;;;0.82;0.50;;;14.80;99.90;;;;;;4949237;29;20192;-66
2023/05/10 01:02:52;;;;;;;0.95;0.60;;;14.80;99.90;;;;;;4972950;28;20216;-69
2023/05/10 01:05:18;;;;;;;1.02;0.50;;;14.80;99.90;;;;;;4973931;28;20271;-68
2023/05/10 01:07:49;;;;;;;0.70;0.60;;;14.80;99.90;;;;;;4973724;28;20295;-68
2023/05/10 01:10:15;;;;;;;0.70;0.70;;;14.80;99.90;;;;;;4971785;28;20192;-68
2023/05/10 01:12:45;;;;;;;1.35;0.70;;;14.80;99.90;;;;;;4951326;28;20176;-69
2023/05/10 01:15:12;;;;;;;1.25;0.60;;;14.70;99.90;;;;;;4944687;28;20197;-68
2023/05/10 01:17:42;;;;;;;1.70;0.68;;;14.80;99.90;;;;;;4969694;28;20203;-66
2023/05/10 01:20:10;;;;;;;1.08;0.85;;;14.80;99.90;;;;;;4966493;28;20177;-69
2023/05/10 01:22:52;;;;;;;1.67;0.70;;;14.70;99.90;;;;;;4969399;28;20232;-71
2023/05/10 01:25:40;;;;;;;1.15;0.60;;;14.70;99.90;;;;;;4963504;28;20188;-68
2023/05/10 01:28:25;;;;;;;0.70;0.60;;;14.70;99.90;;;;;;4951561;29;20187;-67
2023/05/10 01:31:14;;;;;;;0.90;0.50;;;14.80;99.90;;;;;;4969317;28;20255;-69
2023/05/10 01:34:08;;;;;;;1.13;0.90;;;14.80;99.90;;;;;;4951330;29;20220;-68
2023/05/10 01:36:50;;;;;;;0.70;0.70;;;14.70;99.90;;;;;;4963569;28;20310;-69
2023/05/10 01:39:21;;;;;;;0.88;0.73;;;14.70;99.90;;;;;;4966172;28;20367;-70
2023/05/10 01:41:54;;;;;;;1.95;0.80;;;14.70;99.90;;;;;;4954515;28;20190;-67
2023/05/10 01:44:31;;;;;;;0.75;0.70;;;14.70;99.90;;;;;;4964169;28;20450;-67
2023/05/10 01:47:17;;;;;;;0.77;0.70;;;14.70;99.90;;;;;;4969626;28;20180;-67
2023/05/10 01:49:55;;;;;;;1.75;0.77;;;14.70;99.90;;;;;;4948176;28;20212;-68
2023/05/10 01:52:29;;;;;;;1.13;0.80;;;14.70;99.90;;;;;;4952573;29;20212;-67
2023/05/10 01:55:07;;;;;;;1.13;0.80;;;14.70;99.90;;;;;;4967703;28;20238;-68
2023/05/10 01:57:40;;;;;;;2.00;0.80;;;14.70;99.90;;;;;;4969483;28;20176;-67
2023/05/10 02:00:08;;;;;;;0.82;0.77;;;14.70;99.90;;;;;;4961747;28;20192;-67
2023/05/10 02:02:39;;;;;;;1.33;0.82;;;14.60;99.90;;;;;;4967182;28;20208;-67
2023/05/10 02:05:08;;;;;;;1.65;0.70;;;14.60;99.90;;;;;;4952605;29;20443;-67
2023/05/10 02:07:37;;;;;;;0.85;0.70;;;14.60;99.90;;;;;;4956837;28;20275;-69
2023/05/10 02:10:05;;;;;;;0.93;0.77;;;14.70;99.90;;;;;;4966836;28;20279;-67
2023/05/10 02:12:35;;;;;;;1.25;0.85;;;14.60;99.90;;;;;;4953738;29;20219;-69
2023/05/10 02:15:07;;;;;;;3.05;0.75;;;14.60;99.90;;;;;;4967750;28;20279;-66
2023/05/10 02:17:36;;;;;;;0.90;0.80;;;14.60;99.90;;;;;;4965508;28;20193;-68
2023/05/10 02:20:07;;;;;;;1.15;0.80;;;14.60;99.90;;;;;;4955459;28;20421;-66
2023/05/10 02:22:34;;;;;;;1.02;0.82;;;14.60;99.90;;;;;;4968648;28;20197;-67
2023/05/10 02:25:04;;;;;;;0.90;0.80;;;14.60;99.90;;;;;;4968380;28;20271;-68
2023/05/10 02:27:35;;;;;;;1.42;0.90;;;14.60;99.90;;;;;;4969375;28;20188;-68
2023/05/10 02:30:07;;;;;;;1.25;0.98;;;14.60;99.90;;;;;;4970851;28;20185;-68
2023/05/10 02:32:34;;;;;;;0.90;0.75;;;14.60;99.90;;;;;;4972886;28;20247;-67
2023/05/10 02:35:04;;;;;;;0.80;0.80;;;14.60;99.90;;;;;;4972018;28;20299;-67
2023/05/10 02:37:30;;;;;;;1.77;0.75;;;14.60;99.90;;;;;;4953433;29;20177;-67
2023/05/10 02:39:56;;;;;;;0.95;0.85;;;14.60;99.90;;;;;;4973318;28;20192;-68
2023/05/10 02:42:30;;;;;;;0.80;0.80;;;14.60;99.90;;;;;;4956801;29;20200;-68
2023/05/10 02:45:07;;;;;;;1.33;0.90;;;14.60;99.90;;;;;;4985802;28;20258;-68
2023/05/10 02:47:33;;;;;;;1.98;1.05;;;14.60;99.90;;;;;;4953845;28;20169;-68
2023/05/10 02:49:59;;;;;;;1.10;1.00;;;14.60;99.90;;;;;;4973090;28;20187;-68
2023/05/10 02:52:46;;;;;;;1.20;1.10;;;14.60;99.90;;;;;;4960446;28;20187;-68
2023/05/10 02:55:17;;;;;;;1.00;0.90;;;14.60;99.90;;;;;;4952548;29;20266;-70
2023/05/10 02:57:50;;;;;;;1.13;0.93;;;14.60;99.90;;;;;;4948961;28;20184;-72
2023/05/10 03:00:16;;;;;;;1.92;0.90;;;14.60;99.90;;;;;;4956153;29;20177;-69
2023/05/10 03:02:41;;;;;;;1.00;0.90;;;14.60;99.90;;;;;;4953853;29;20271;-69
2023/05/10 03:05:07;;;;;;;0.95;0.80;;;14.60;99.90;;;;;;4964491;28;20195;-69
2023/05/10 03:07:33;;;;;;;0.88;0.73;;;14.60;99.90;;;;;;4963702;28;20301;-65
2023/05/10 03:10:02;;;;;;;1.70;0.90;;;14.60;99.90;;;;;;4962889;28;20181;-69
2023/05/10 03:12:39;;;;;;;1.00;0.90;;;14.60;99.90;;;;;;4962417;28;20180;-69
2023/05/10 03:15:13;;;;;;;0.80;0.70;;;14.70;99.90;;;;;;4954830;29;20243;-69
2023/05/10 03:18:08;;;;;;;1.30;1.08;;;14.60;99.90;;;;;;4973729;28;20196;-69
2023/05/10 03:20:43;;;;;;;1.38;1.15;;;14.70;99.90;;;;;;4972449;28;20185;-68
2023/05/10 03:23:18;;;;;;;2.30;1.02;;;14.70;99.90;;;;;;4969867;28;20206;-69
2023/05/10 03:25:50;;;;;;;1.95;1.20;;;14.70;99.90;;;;;;4955765;29;20232;-66
2023/05/10 03:28:18;;;;;;;1.38;1.17;;;14.70;99.90;;;;;;4973952;28;20184;-65
2023/05/10 03:30:45;;;;;;;2.10;1.58;;;14.70;99.90;;;;;;4973529;28;20180;-66
2023/05/10 03:33:12;;;;;;;1.80;1.60;;;14.60;99.90;;;;;;4974218;28;20181;-65
2023/05/10 03:35:38;;;;;;;2.88;2.20;;;14.60;99.90;;;;;;4964339;28;20208;-65
2023/05/10 03:38:04;;;;;;;2.25;1.92;;;14.60;99.90;;;;;;4951910;28;20216;-65
2023/05/10 03:40:31;;;;;;;2.47;1.60;;;14.70;99.90;;;;;;4971567;28;20178;-65
2023/05/10 03:42:59;;;;;;;2.55;1.90;;;14.70;99.90;;;;;;4966146;28;20256;-65
2023/05/10 03:45:28;;;;;;;2.75;2.10;;;14.70;99.90;;;;;;4972654;28;20271;-65
2023/05/10 03:47:57;;;;;;;3.03;2.15;;;14.70;99.90;;;;;;4954460;28;20278;-65
2023/05/10 03:50:22;;;;;;;2.13;1.77;;;14.70;99.90;;;;;;4955733;29;20176;-66
2023/05/10 03:52:48;;;;;;;2.78;2.10;;;14.70;99.90;;;;;;4957056;28;20209;-65
2023/05/10 03:55:14;;;;;;;2.45;2.05;;;14.70;99.90;;;;;;4961902;28;20188;-65
2023/05/10 03:57:44;;;;;;;3.70;2.10;;;14.70;99.90;;;;;;4970305;28;20177;-65
2023/05/10 04:00:11;;;;;;;2.00;1.80;;;14.70;99.90;;;;;;4955430;28;20204;-65
2023/05/10 04:02:38;;;;;;;2.17;1.77;;;14.70;99.90;;;;;;4969160;28;20205;-65
2023/05/10 04:05:04;;;;;;;2.92;2.30;;;14.70;99.90;;;;;;4971772;28;20177;-66
2023/05/10 04:07:30;;;;;;;2.33;2.13;;;14.70;99.90;;;;;;4970691;28;20203;-66
2023/05/10 04:09:56;;;;;;;2.83;2.50;;;14.70;99.90;;;;;;4957473;28;20181;-66
2023/05/10 04:12:23;;;;;;;3.75;2.60;;;14.70;99.90;;;;;;4968742;28;20204;-66
2023/05/10 04:14:49;;;;;;;3.38;2.85;;;14.70;99.90;;;;;;4955943;29;20187;-66
2023/05/10 04:17:17;;;;;;;3.15;2.80;;;14.70;99.90;;;;;;4948310;28;20279;-65
2023/05/10 04:19:42;;;;;;;5.25;3.60;;;14.80;99.90;;;;;;4957440;28;20204;-66
2023/05/10 04:22:08;;;;;;;4.15;3.60;;;14.80;99.90;;;;;;4955080;29;20185;-66
2023/05/10 04:24:36;;;;;;;5.15;4.03;;;14.80;99.90;;;;;;4969521;28;20437;-67
2023/05/10 04:27:02;;;;;;;5.03;4.18;;;14.90;99.90;;;;;;4959392;28;20177;-66
2023/05/10 04:29:28;;;;;;;5.60;4.53;;;14.90;99.90;;;;;;4974166;28;20184;-66
2023/05/10 04:31:57;;;;;;;6.05;4.70;;;15.00;99.90;;;;;;4974054;28;20177;-66
2023/05/10 04:34:25;;;;;;;6.63;4.97;;;14.90;99.90;;;;;;4973906;28;20251;-66
2023/05/10 04:36:51;;;;;;;6.82;5.15;;;15.00;99.90;;;;;;4964891;28;20204;-67
2023/05/10 04:39:16;;;;;;;6.03;5.20;;;15.00;99.90;;;;;;4971230;28;20367;-68
2023/05/10 04:41:48;;;;;;;6.20;5.18;;;14.90;99.90;;;;;;4958811;29;20181;-67
2023/05/10 04:44:14;;;;;;;6.80;5.38;;;14.90;99.90;;;;;;4974878;28;20184;-67
2023/05/10 04:46:42;;;;;;;7.88;6.15;;;15.00;99.90;;;;;;4974991;28;20184;-68
2023/05/10 04:49:09;;;;;;;8.90;5.65;;;15.00;99.90;;;;;;4965601;28;20341;-66
2023/05/10 04:51:35;;;;;;;6.80;5.93;;;15.00;99.90;;;;;;4952128;28;20181;-66
2023/05/10 04:54:01;;;;;;;8.73;6.47;;;15.00;99.90;;;;;;4957963;29;20184;-66
2023/05/10 04:56:26;;;;;;;9.18;6.53;;;15.00;99.90;;;;;;4974461;28;20183;-66
2023/05/10 04:58:52;;;;;;;8.45;6.32;;;15.00;99.90;;;;;;4967895;28;20287;-66
2023/05/10 05:01:20;;;;;;;8.52;6.95;;;15.00;99.90;;;;;;4971409;28;20239;-66
2023/05/10 05:03:46;;;;;;;8.75;6.68;;;15.00;99.90;;;;;;4960024;28;20426;-66
2023/05/10 05:06:11;;;;;;;9.48;7.07;;;15.10;99.90;;;;;;4955484;28;20242;-66
2023/05/10 05:08:39;;;;;;;11.05;6.57;;;15.10;99.90;;;;;;4966445;28;20299;-66
2023/05/10 05:11:07;;;;;;;9.93;6.75;;;15.10;99.90;;;;;;4970765;28;20226;-67
2023/05/10 05:13:35;;;;;;;10.30;7.35;;;15.10;99.90;;;;;;4968911;28;20494;-67
2023/05/10 05:16:04;;;;;;;9.35;7.10;;;15.20;99.90;;;;;;4955568;29;20267;-66
2023/05/10 05:18:30;;;;;;;10.48;6.75;;;15.20;99.90;;;;;;4956718;28;20415;-67
2023/05/10 05:20:56;;;;;;;8.63;6.80;;;15.10;99.90;;;;;;4968736;28;20425;-66
2023/05/10 05:23:26;;;;;;;9.63;7.63;;;15.20;99.90;;;;;;4950781;29;20188;-66
2023/05/10 05:25:57;;;;;;;8.68;7.38;;;15.20;99.90;;;;;;4957310;28;20185;-66
2023/05/10 05:28:22;;;;;;;9.50;7.85;;;15.20;99.90;;;;;;4949827;29;20177;-66
2023/05/10 05:30:48;;;;;;;8.45;6.60;;;15.10;99.90;;;;;;4951857;29;20245;-66
2023/05/10 05:33:17;;;;;;;7.90;6.78;;;15.10;99.90;;;;;;4973440;28;20195;-66
2023/05/10 05:35:50;;;;;;;9.48;7.25;;;15.20;99.90;;;;;;4969325;28;20493;-66
2023/05/10 05:38:18;;;;;;;10.15;7.25;;;15.20;99.90;;;;;;4948007;29;20240;-66
2023/05/10 05:40:48;;;;;;;9.05;6.80;;;15.20;99.90;;;;;;4972863;28;20235;-66
2023/05/10 05:43:14;;;;;;;7.50;6.25;;;15.20;99.90;;;;;;4969410;28;20186;-67
2023/05/10 05:45:39;;;;;;;9.13;6.88;;;15.20;99.90;;;;;;4955435;29;20200;-68
2023/05/10 05:48:07;;;;;;;9.65;6.50;;;15.30;99.90;;;;;;4956448;28;20185;-67
2023/05/10 05:50:33;;;;;;;7.63;6.15;;;15.30;99.90;;;;;;4970123;28;20177;-67
2023/05/10 05:52:59;;;;;;;8.05;6.00;;;15.30;99.90;;;;;;4946197;29;20272;-67
2023/05/10 05:55:25;;;;;;;7.55;6.35;;;15.40;99.90;;;;;;4958792;28;20188;-67
2023/05/10 05:57:56;;;;;;;8.07;6.18;;;15.50;99.90;;;;;;4973060;28;20176;-67
2023/05/10 06:00:22;;;;;;;8.77;6.22;;;15.50;99.90;;;;;;4938557;29;20188;-67
2023/05/10 06:02:47;;;;;;;6.88;5.45;;;15.50;99.90;;;;;;4955470;29;20279;-67
2023/05/10 06:05:14;;;;;;;6.55;5.75;;;15.60;99.90;;;;;;4961177;28;20283;-67
2023/05/10 06:07:41;;;;;;;7.22;5.72;;;15.60;99.90;;;;;;4973137;28;20173;-67
2023/05/10 06:10:08;;;;;;;7.45;5.63;;;15.70;99.90;;;;;;4962197;28;20181;-67
2023/05/10 06:12:36;;;;;;;7.93;6.00;;;15.70;99.90;;;;;;4966659;28;20288;-67
2023/05/10 06:15:03;;;;;;;7.25;5.22;;;15.80;99.90;;;;;;4953429;29;20331;-67
2023/05/10 06:17:28;;;;;;;6.50;5.60;;;15.80;99.90;;;;;;4964239;28;20198;-67
2023/05/10 06:19:54;;;;;;;8.55;5.15;;;15.80;99.90;;;;;;4956289;29;20207;-67
2023/05/10 06:22:22;;;;;;;7.03;5.55;;;15.80;99.90;;;;;;4957112;28;20193;-67
2023/05/10 06:24:48;;;;;;;6.03;4.95;;;15.80;99.90;;;;;;4963854;28;20188;-67
2023/05/10 06:27:14;;;;;;;8.57;5.13;;;15.80;99.90;;;;;;4972224;28;20247;-67
2023/05/10 06:29:39;;;;;;;5.57;4.93;;;15.80;99.90;;;;;;4952403;28;20197;-68
2023/05/10 06:32:07;;;;;;;7.85;5.60;;;15.80;99.90;;;;;;4969225;28;20195;-68
2023/05/10 06:34:33;;;;;;;6.47;5.20;;;15.80;99.90;;;;;;4971207;28;20185;-67
2023/05/10 06:36:58;;;;;;;6.63;4.47;;;15.90;99.90;;;;;;4952086;29;20184;-67
2023/05/10 06:39:26;;;;;;;4.70;3.88;;;15.90;99.90;;;;;;4972236;28;20213;-68
2023/05/10 06:41:54;;;;;;;5.90;4.10;;;15.90;99.90;;;;;;4956448;29;20183;-68
2023/05/10 06:44:19;;;;;;;4.45;3.70;;;15.90;99.90;;;;;;4940283;29;20260;-68
2023/05/10 06:46:45;;;;;;;5.07;3.58;;;15.90;99.90;;;;;;4953219;28;20212;-68
2023/05/10 06:49:11;;;;;;;4.18;3.40;;;15.80;99.90;;;;;;4952497;29;20181;-67
2023/05/10 06:51:41;;;;;;;3.83;3.40;;;15.80;99.90;;;;;;4954173;28;20189;-67
2023/05/10 06:54:09;;;;;;;5.35;3.17;;;15.80;99.90;;;;;;4972593;28;20169;-68
2023/05/10 06:56:35;;;;;;;3.75;3.20;;;15.80;99.90;;;;;;4972335;28;20338;-67
2023/05/10 06:59:02;;;;;;;3.97;3.10;;;15.80;99.90;;;;;;4970207;28;20208;-68
2023/05/10 07:01:28;;;;;;;4.45;3.08;;;15.80;99.90;;;;;;4936957;29;20236;-67
2023/05/10 07:03:56;;;;;;;4.15;3.20;;;15.80;99.90;;;;;;4942155;29;20283;-68
2023/05/10 07:06:24;;;;;;;4.80;3.17;;;15.70;99.90;;;;;;4972427;28;20176;-69
2023/05/10 07:08:50;;;;;;;4.07;2.97;;;15.70;99.90;;;;;;4972122;28;20197;-68
2023/05/10 07:11:16;;;;;;;3.85;3.03;;;15.70;99.90;;;;;;4956727;29;20176;-71
2023/05/10 07:13:43;;;;;;;3.22;2.90;;;15.70;99.90;;;;;;4955438;29;20180;-70
2023/05/10 07:16:10;;;;;;;4.75;2.90;;;15.70;99.90;;;;;;4955093;29;20192;-68
2023/05/10 07:18:35;;;;;;;4.20;2.95;;;15.70;99.90;;;;;;4963346;28;20200;-68
2023/05/10 07:21:04;;;;;;;3.08;2.78;;;15.70;99.90;;;;;;4956424;28;20195;-69
2023/05/10 07:23:29;;;;;;;3.80;2.53;;;15.60;99.90;;;;;;4964972;28;20185;-68
2023/05/10 07:25:57;;;;;;;3.92;3.00;;;15.60;99.90;;;;;;4954218;28;20236;-67
2023/05/10 07:28:24;;;;;;;3.60;2.78;;;15.70;99.90;;;;;;4945959;29;20209;-68
2023/05/10 07:30:49;;;;;;;4.00;2.85;;;15.70;99.90;;;;;;4961556;28;20184;-68
2023/05/10 07:33:15;;;;;;;4.15;2.72;;;15.70;99.90;;;;;;4950128;29;20189;-68
2023/05/10 07:35:41;;;;;;;2.65;2.40;;;15.70;99.90;;;;;;4952279;29;20199;-68
2023/05/10 07:38:10;;;;;;;2.60;2.40;;;15.70;99.90;;;;;;4971273;28;20184;-68
2023/05/10 07:40:39;;;;;;;2.85;2.30;;;15.80;99.90;;;;;;4958250;28;20177;-68
2023/05/10 07:43:04;;;;;;;3.97;2.40;;;15.80;99.90;;;;;;4966844;28;20276;-68
2023/05/10 07:45:30;;;;;;;3.35;2.25;;;15.80;99.90;;;;;;4966673;28;20264;-68
2023/05/10 07:47:56;;;;;;;3.25;2.67;;;15.90;99.90;;;;;;4968454;28;20217;-68
2023/05/10 07:50:21;;;;;;;3.78;2.50;;;15.90;99.90;;;;;;4955400;29;20227;-68
2023/05/10 07:52:49;;;;;;;2.90;2.40;;;15.90;99.90;;;;;;4956971;28;20224;-68
2023/05/10 07:55:17;;;;;;;4.57;2.50;;;16.00;99.90;;;;;;4964166;28;20169;-68
2023/05/10 07:57:43;;;;;;;2.92;2.38;;;16.00;99.90;;;;;;4970268;28;20196;-68
2023/05/10 08:00:12;;;;;;;2.90;2.28;;;16.00;99.90;;;;;;4958594;28;20229;-68
2023/05/10 08:02:37;;;;;;;2.95;2.47;;;16.10;99.90;;;;;;4957089;28;20174;-67
2023/05/10 08:05:05;;;;;;;2.60;2.40;;;16.10;99.90;;;;;;4971837;28;20197;-68
2023/05/10 08:07:30;;;;;;;3.08;2.45;;;16.10;99.90;;;;;;4949123;29;20177;-68
2023/05/10 08:09:56;;;;;;;3.03;2.40;;;16.10;99.90;;;;;;4958833;28;20248;-67
2023/05/10 08:12:24;;;;;;;2.83;2.35;;;16.10;99.90;;;;;;4943033;29;20196;-68
2023/05/10 08:14:50;;;;;;;2.85;2.22;;;16.10;99.90;;;;;;4974207;28;20192;-68
2023/05/10 08:17:15;;;;;;;3.00;2.35;;;16.10;99.90;;;;;;4958952;28;20196;-67
2023/05/10 08:19:41;;;;;;;3.35;2.40;;;16.10;99.90;;;;;;4950036;28;20213;-69
2023/05/10 08:22:07;;;;;;;2.53;2.28;;;16.20;99.90;;;;;;4949211;29;20184;-67
2023/05/10 08:24:38;;;;;;;4.10;2.58;;;16.20;99.90;;;;;;4970588;28;20181;-68
2023/05/10 08:27:13;;;;;;;2.95;2.20;;;16.20;99.90;;;;;;4949674;29;20201;-69
2023/05/10 08:29:41;;;;;;;3.78;2.85;;;16.30;99.90;;;;;;4974862;28;20259;-69
2023/05/10 08:32:06;;;;;;;3.47;2.47;;;16.40;99.90;;;;;;4974856;28;20191;-68
2023/05/10 08:34:32;;;;;;;2.60;2.40;;;16.50;99.90;;;;;;4959092;28;20212;-68
2023/05/10 08:37:00;;;;;;;4.78;2.42;;;16.50;99.90;;;;;;4960215;28;20252;-68
2023/05/10 08:39:33;;;;;;;5.18;2.50;;;16.60;99.90;;;;;;4974905;28;20259;-68
2023/05/10 08:42:03;;;;;;;2.70;2.25;;;16.60;99.90;;;;;;4971528;28;20209;-68
2023/05/10 08:44:30;;;;;;;2.40;2.05;;;16.60;99.90;;;;;;4944144;29;20208;-68
2023/05/10 08:47:03;;;;;;;2.97;2.47;;;16.60;99.90;;;;;;4958352;29;20173;-69
2023/05/10 08:49:33;;;;;;;2.85;2.30;;;16.60;99.90;;;;;;4971182;28;20500;-68
2023/05/10 08:52:03;;;;;;;3.42;2.08;;;16.70;99.90;;;;;;4941597;29;20185;-67
2023/05/10 08:54:31;;;;;;;1.98;1.77;;;16.60;99.90;;;;;;4944016;28;20219;-68
2023/05/10 08:56:57;;;;;;;2.08;1.80;;;16.70;99.90;;;;;;4955259;28;20525;-68
2023/05/10 08:59:22;;;;;;;2.47;2.00;;;16.70;99.90;;;;;;4973997;28;20208;-68
2023/05/10 09:01:51;;;;;;;2.25;2.00;;;16.70;99.90;;;;;;4968484;28;20177;-68
2023/05/10 09:04:18;;;;;;;2.85;1.80;;;16.70;99.90;;;;;;4946599;29;20200;-68
2023/05/10 09:06:44;;;;;;;1.75;1.60;;;16.70;99.90;;;;;;4973027;28;20181;-68
2023/05/10 09:09:10;;;;;;;2.08;1.73;;;16.60;99.90;;;;;;4969175;28;20197;-68
2023/05/10 09:11:38;;;;;;;1.85;1.48;;;16.60;99.90;;;;;;4956505;28;20211;-68
2023/05/10 09:14:04;;;;;;;1.60;1.48;;;16.50;99.90;;;;;;4966857;28;20199;-67
2023/05/10 09:16:30;;;;;;;1.60;1.48;;;16.40;99.90;;;;;;4967067;28;20189;-67
2023/05/10 09:18:58;;;;;;;1.15;1.02;;;16.30;99.90;;;;;;4951217;29;20212;-67
2023/05/10 09:21:27;;;;;;;1.63;1.27;;;16.20;99.90;;;;;;4970823;28;20185;-68
2023/05/10 09:23:55;;;;;;;1.55;1.35;;;16.20;99.90;;;;;;4966313;28;20429;-68
2023/05/10 09:26:26;;;;;;;1.63;1.25;;;16.10;99.90;;;;;;4956766;28;20192;-68
2023/05/10 09:28:57;;;;;;;2.28;1.20;;;16.10;99.90;;;;;;4956955;29;20185;-68
2023/05/10 09:31:24;;;;;;;1.17;0.88;;;16.00;99.90;;;;;;4960355;28;20203;-68
2023/05/10 09:33:51;;;;;;;1.40;1.23;;;16.00;99.90;;;;;;4971189;28;20232;-68
2023/05/10 09:36:19;;;;;;;0.80;0.80;;;16.10;99.90;;;;;;4976633;28;20184;-68
2023/05/10 09:38:50;;;;;;;1.20;1.08;;;16.10;99.90;;;;;;4957963;28;20239;-69
2023/05/10 09:41:21;;;;;;;3.85;2.10;;;16.20;99.90;;;;;;4969461;28;20197;-67
2023/05/10 09:43:47;;;;;;;2.10;1.58;;;16.20;99.90;;;;;;4973022;28;20161;-68
2023/05/10 09:46:13;;;;;;;1.10;1.00;;;16.30;99.90;;;;;;4958886;28;20256;-70
2023/05/10 09:48:48;;;;;;;1.70;1.02;;;16.30;99.90;;;;;;4965906;28;20205;-68
2023/05/10 09:51:23;;;;;;;1.23;0.90;;;16.40;99.90;;;;;;4941910;29;20244;-68
2023/05/10 09:54:17;;;;;;;2.08;1.15;;;16.40;99.90;;;;;;4954917;29;20212;-69
2023/05/10 09:56:43;;;;;;;1.00;0.90;;;16.50;99.90;;;;;;4959635;28;20213;-69
2023/05/10 09:59:12;;;;;;;1.30;0.93;;;16.60;99.90;;;;;;4953308;29;20235;-69
2023/05/10 10:01:38;;;;;;;1.10;0.98;;;16.60;99.90;;;;;;4963183;28;20228;-69
2023/05/10 10:04:07;;;;;;;1.30;1.00;;;16.70;99.90;;;;;;4957891;28;20180;-70
2023/05/10 10:06:40;;;;;;;1.23;1.13;;;16.70;99.90;;;;;;4959833;28;20200;-68
2023/05/10 10:09:11;;;;;;;1.83;1.42;;;16.80;99.90;;;;;;4967786;28;20184;-69
2023/05/10 10:11:38;;;;;;;2.58;1.83;;;17.00;99.90;;;;;;4953577;29;20204;-69
2023/05/10 10:14:04;;;;;;;2.60;1.90;;;17.10;99.90;;;;;;4955499;29;20288;-69
2023/05/10 10:16:31;;;;;;;4.05;2.30;;;17.20;99.90;;;;;;4957263;28;20293;-69
2023/05/10 10:18:57;;;;;;;4.63;2.88;;;17.30;99.90;;;;;;4963684;28;20227;-69
2023/05/10 10:21:23;;;;;;;3.58;2.80;;;17.40;99.90;;;;;;4957954;28;20177;-69
2023/05/10 10:23:49;;;;;;;4.22;3.10;;;17.50;99.90;;;;;;4955186;28;20230;-69
2023/05/10 10:26:19;;;;;;;5.10;3.22;;;17.60;99.90;;;;;;4971927;28;20255;-70
2023/05/10 10:28:51;;;;;;;8.15;4.45;;;17.70;99.90;;;;;;4969416;28;20181;-69
2023/05/10 10:31:38;;;;;;;5.68;3.95;;;17.70;99.90;;;;;;4950838;29;20188;-69
2023/05/10 10:34:16;;;;;;;5.40;4.10;;;17.80;99.90;;;;;;4950400;29;20180;-68
2023/05/10 10:36:47;;;;;;;5.40;3.88;;;17.80;99.90;;;;;;4969406;28;20264;-68
2023/05/10 10:39:13;;;;;;;4.40;3.40;;;17.70;99.90;;;;;;4944265;28;20213;-68
2023/05/10 10:41:48;;;;;;;4.70;3.40;;;17.60;99.90;;;;;;4972671;28;20176;-68
2023/05/10 10:44:34;;;;;;;4.95;3.40;;;17.50;99.90;;;;;;4960641;28;20179;-68
2023/05/10 10:47:14;;;;;;;4.35;3.28;;;17.50;99.90;;;;;;4968887;28;20279;-68
2023/05/10 10:49:41;;;;;;;5.50;3.75;;;17.50;99.90;;;;;;4938525;29;20184;-67
2023/05/10 10:52:31;;;;;;;6.65;4.10;;;17.60;99.90;;;;;;4959251;28;20185;-68
2023/05/10 10:55:07;;;;;;;4.30;3.17;;;17.80;99.90;;;;;;4953032;28;20292;-68
2023/05/10 10:57:50;;;;;;;4.15;3.40;;;18.00;99.90;;;;;;4953352;29;20268;-68
2023/05/10 11:00:30;;;;;;;2.78;2.40;;;18.00;99.90;;;;;;4944417;29;20203;-68
2023/05/10 11:03:01;;;;;;;2.25;1.83;;;18.00;99.90;;;;;;4972079;28;20200;-67
2023/05/10 11:05:35;;;;;;;3.47;1.90;;;18.00;99.90;;;;;;4972333;28;20181;-69
2023/05/10 11:08:08;;;;;;;1.42;1.15;;;17.90;99.90;;;;;;4955737;29;20180;-68
2023/05/10 11:10:39;;;;;;;1.20;1.10;;;17.90;99.90;;;;;;4972409;28;20180;-68
2023/05/10 11:13:05;;;;;;;0.80;0.80;;;18.00;99.90;;;;;;4972445;28;20169;-68
2023/05/10 11:15:48;;;;;;;2.03;0.85;;;18.20;99.90;;;;;;4939931;28;20181;-68
2023/05/10 11:18:18;;;;;;;1.05;0.90;;;18.40;99.90;;;;;;4953179;28;20199;-67
2023/05/10 11:20:49;;;;;;;1.00;0.90;;;18.70;99.90;;;;;;4955710;28;20181;-68
2023/05/10 11:23:17;;;;;;;1.10;1.00;;;18.90;99.90;;;;;;4952671;28;20271;-68
2023/05/10 11:25:47;;;;;;;1.05;0.95;;;19.20;99.90;;;;;;4971782;28;20181;-68
2023/05/10 11:28:13;;;;;;;1.10;1.00;;;19.40;99.90;;;;;;4960089;28;20173;-68
2023/05/10 11:30:40;;;;;;;1.15;1.05;;;19.60;99.90;;;;;;4960542;28;20206;-67
2023/05/10 11:33:06;;;;;;;1.20;1.10;;;19.70;99.90;;;;;;4971928;28;20200;-65
2023/05/10 11:35:38;;;;;;;1.40;1.30;;;19.70;99.90;;;;;;4959544;28;20181;-66
2023/05/10 11:38:09;;;;;;;1.27;1.17;;;19.80;99.90;;;;;;4949027;28;20228;-67
2023/05/10 11:40:38;;;;;;;1.27;1.10;;;19.80;99.90;;;;;;4966124;28;20179;-67
2023/05/10 11:43:04;;;;;;;1.83;1.15;;;19.90;99.90;;;;;;4975306;28;20188;-64
2023/05/10 11:45:34;;;;;;;1.70;1.10;;;20.10;99.90;;;;;;4958771;28;20243;-64
2023/05/10 11:48:01;;;;;;;1.23;1.10;;;20.20;99.90;;;;;;4971384;28;20174;-63
2023/05/10 11:50:27;;;;;;;1.70;1.20;;;20.30;99.90;;;;;;4947427;29;20296;-64
2023/05/10 11:52:56;;;;;;;1.50;1.10;;;20.40;99.90;;;;;;4959656;28;20264;-64
2023/05/10 11:55:24;;;;;;;1.08;0.98;;;20.50;99.90;;;;;;4963911;28;20250;-64
2023/05/10 11:57:54;;;;;;;1.13;1.02;;;20.50;99.90;;;;;;4959020;29;20216;-64
2023/05/10 12:00:20;;;;;;;0.82;0.82;;;20.50;99.90;;;;;;4958924;29;20204;-64
2023/05/10 12:02:48;;;;;;;0.90;0.80;;;20.40;99.90;;;;;;4963755;28;20169;-63
2023/05/10 12:05:14;;;;;;;0.95;0.85;;;20.40;99.90;;;;;;4969526;28;20173;-64
2023/05/10 12:07:41;;;;;;;1.02;0.90;;;20.30;99.90;;;;;;4958891;28;20247;-64
2023/05/10 12:10:17;;;;;;;0.98;0.90;;;20.20;99.90;;;;;;4974509;28;20279;-68
2023/05/10 12:12:45;;;;;;;1.23;0.90;;;20.20;99.90;;;;;;4954468;28;20201;-65
2023/05/10 12:15:22;;;;;;;1.70;1.27;;;20.20;99.90;;;;;;4969625;28;20189;-66
2023/05/10 12:17:49;;;;;;;1.20;1.02;;;20.20;99.90;;;;;;4958782;28;20224;-66
2023/05/10 12:20:17;;;;;;;1.25;1.15;;;20.10;99.90;;;;;;4965278;28;20235;-66
2023/05/10 12:23:03;;;;;;;1.60;1.20;;;20.10;99.90;;;;;;4971899;28;20184;-66
2023/05/10 12:25:36;;;;;;;1.33;1.23;;;20.00;99.90;;;;;;4969539;28;20174;-67
2023/05/10 12:28:08;;;;;;;1.40;1.00;;;20.00;99.90;;;;;;4946339;29;20196;-66
2023/05/10 12:30:38;;;;;;;1.00;0.90;;;19.90;99.90;;;;;;4970315;28;20185;-66
2023/05/10 12:33:09;;;;;;;1.42;0.98;;;19.90;99.90;;;;;;4958764;29;20283;-66
2023/05/10 12:35:53;;;;;;;1.00;0.95;;;19.80;99.90;;;;;;4965291;28;20181;-66
2023/05/10 12:38:29;;;;;;;0.93;0.90;;;19.70;99.90;;;;;;4965461;28;20180;-66
2023/05/10 12:40:55;;;;;;;0.88;0.88;;;19.70;99.90;;;;;;4955422;28;20201;-66
2023/05/10 12:43:21;;;;;;;0.93;0.90;;;19.70;99.90;;;;;;4954957;28;20174;-66
2023/05/10 12:45:48;;;;;;;0.85;0.82;;;19.70;99.90;;;;;;4938669;29;20268;-66
2023/05/10 12:48:17;;;;;;;0.75;0.70;;;19.60;99.90;;;;;;4947620;29;20225;-66
2023/05/10 12:50:42;;;;;;;1.25;0.80;;;19.50;99.90;;;;;;4959259;28;20177;-66
2023/05/10 12:53:10;;;;;;;1.33;0.98;;;19.40;99.90;;;;;;4974401;28;20184;-67
2023/05/10 12:55:36;;;;;;;1.05;0.90;;;19.30;99.90;;;;;;4974420;28;20161;-67